Time;durP1;ratioP1;P1;durP2;ratioP2;P2;SDS_P1;SDS_P2;PMS_P1;PMS_P2;Temp;Humidity;BMP_temperature;BMP_pressure;BME280_temperature;BME280_humidity;BME280_pressure;Samples;Min_cycle;Max_cycle;Signal;HPM_P1;HPM_P2
2021/11/22 00:00:37;;;;;;;1.23;0.45;;;;;11.50;101860.00;;;;5091940;28;20186;-82
2021/11/22 00:03:05;;;;;;;4.38;0.32;;;;;11.50;101862.00;;;;5092089;28;20198;-82
2021/11/22 00:05:35;;;;;;;2.08;0.32;;;;;11.50;101862.00;;;;5101237;27;20201;-83
2021/11/22 00:08:02;;;;;;;1.50;0.22;;;;;11.50;101860.00;;;;5101327;28;20206;-82
2021/11/22 00:10:29;;;;;;;0.98;0.20;;;;;11.50;101859.00;;;;5091392;28;20198;-82
2021/11/22 00:12:56;;;;;;;1.27;0.30;;;;;11.50;101870.00;;;;5092992;28;20194;-83
2021/11/22 00:15:24;;;;;;;1.23;0.30;;;;;11.50;101870.00;;;;5090066;28;20214;-83
2021/11/22 00:17:51;;;;;;;1.17;0.40;;;;;11.50;101875.00;;;;5091996;28;20604;-82
2021/11/22 00:20:21;;;;;;;1.02;0.30;;;;;11.50;101881.00;;;;5093088;28;20194;-83
2021/11/22 00:22:50;;;;;;;0.90;0.45;;;;;11.50;101879.00;;;;5103477;27;20221;-83
2021/11/22 00:25:18;;;;;;;2.67;0.55;;;;;11.50;101880.00;;;;5096619;28;20198;-83
2021/11/22 00:27:47;;;;;;;2.40;0.45;;;;;11.50;101882.00;;;;5102777;28;20304;-83
2021/11/22 00:30:15;;;;;;;1.15;0.20;;;;;11.50;101887.00;;;;5101131;28;20676;-83
2021/11/22 00:32:44;;;;;;;2.70;0.32;;;;;11.50;101888.00;;;;5091921;28;20668;-82
2021/11/22 00:35:13;;;;;;;0.47;0.22;;;;;11.50;101889.00;;;;5098265;28;20225;-83
2021/11/22 00:37:41;;;;;;;0.80;0.38;;;;;11.50;101901.00;;;;5097026;28;20194;-82
2021/11/22 00:40:13;;;;;;;0.43;0.20;;;;;11.40;101897.00;;;;5097030;28;20255;-83
2021/11/22 00:42:43;;;;;;;1.95;0.43;;;;;11.50;101903.00;;;;5095134;28;20193;-82
2021/11/22 00:45:10;;;;;;;0.20;0.10;;;;;11.50;101906.00;;;;5098723;28;20204;-83
2021/11/22 00:47:38;;;;;;;1.15;0.40;;;;;11.50;101911.00;;;;5094251;28;20203;-83
2021/11/22 00:50:06;;;;;;;1.77;0.20;;;;;11.40;101913.00;;;;5097294;28;20280;-82
2021/11/22 00:52:33;;;;;;;0.47;0.17;;;;;11.40;101918.00;;;;5098528;28;20241;-82
2021/11/22 00:55:00;;;;;;;1.33;0.25;;;;;11.40;101923.00;;;;5097443;28;20603;-83
2021/11/22 00:57:29;;;;;;;1.95;0.63;;;;;11.40;101931.00;;;;5098313;28;20189;-82
2021/11/22 00:59:57;;;;;;;0.93;0.40;;;;;11.40;101935.00;;;;5095252;28;20191;-82
2021/11/22 01:02:24;;;;;;;0.98;0.20;;;;;11.40;101933.00;;;;5101509;28;20276;-82
2021/11/22 01:04:51;;;;;;;0.65;0.20;;;;;11.40;101931.00;;;;5094737;28;20195;-82
2021/11/22 01:07:19;;;;;;;0.50;0.10;;;;;11.40;101934.00;;;;5090287;28;20194;-82
2021/11/22 01:09:46;;;;;;;2.55;0.30;;;;;11.40;101945.00;;;;5094732;28;20668;-82
2021/11/22 01:12:14;;;;;;;0.45;0.20;;;;;11.40;101939.00;;;;5096044;28;20201;-82
2021/11/22 01:14:43;;;;;;;0.85;0.20;;;;;11.30;101948.00;;;;5096429;28;20218;-83
2021/11/22 01:17:11;;;;;;;0.57;0.10;;;;;11.30;101945.00;;;;5104133;28;20197;-82
2021/11/22 01:19:38;;;;;;;2.83;0.40;;;;;11.30;101948.00;;;;5096942;28;20200;-82
2021/11/22 01:22:06;;;;;;;1.65;0.20;;;;;11.30;101962.00;;;;5105623;28;20200;-82
2021/11/22 01:24:33;;;;;;;1.73;0.38;;;;;11.30;101959.00;;;;5097054;28;20202;-83
2021/11/22 01:27:00;;;;;;;2.10;0.30;;;;;11.30;101958.00;;;;5101262;28;20222;-82
2021/11/22 01:29:27;;;;;;;0.60;0.20;;;;;11.30;101960.00;;;;5095511;28;20202;-82
2021/11/22 01:31:56;;;;;;;0.82;0.17;;;;;11.30;101963.00;;;;5100346;28;20197;-82
2021/11/22 01:34:24;;;;;;;0.82;0.20;;;;;11.30;101967.00;;;;5099279;28;20222;-82
2021/11/22 01:36:51;;;;;;;2.83;0.35;;;;;11.30;101969.00;;;;5095392;28;20198;-82
2021/11/22 01:39:18;;;;;;;1.50;0.60;;;;;11.30;101973.00;;;;5104817;28;20213;-83
2021/11/22 01:41:45;;;;;;;0.52;0.20;;;;;11.30;101978.00;;;;5089691;28;20194;-82
2021/11/22 01:44:13;;;;;;;2.20;0.63;;;;;11.20;101979.00;;;;5098030;28;20195;-82
2021/11/22 01:46:41;;;;;;;3.20;0.43;;;;;11.20;101992.00;;;;5091193;28;20205;-82
2021/11/22 01:49:09;;;;;;;1.38;0.40;;;;;11.20;101990.00;;;;5092039;28;20328;-82
2021/11/22 01:51:37;;;;;;;0.75;0.35;;;;;11.20;102000.00;;;;5092757;28;20324;-82
2021/11/22 01:54:04;;;;;;;0.95;0.40;;;;;11.20;101998.00;;;;5096833;28;20197;-82
2021/11/22 01:56:31;;;;;;;4.05;0.65;;;;;11.20;101995.00;;;;5097531;28;21000;-82
2021/11/22 01:58:59;;;;;;;4.07;0.60;;;;;11.20;102000.00;;;;5092754;28;20186;-81
2021/11/22 02:01:26;;;;;;;0.85;0.50;;;;;11.20;101995.00;;;;5096169;28;20198;-82
2021/11/22 02:03:54;;;;;;;2.70;0.30;;;;;11.10;102001.00;;;;5100056;28;20197;-82
2021/11/22 02:06:22;;;;;;;0.80;0.30;;;;;11.10;102009.00;;;;5090681;27;20194;-82
2021/11/22 02:08:50;;;;;;;2.03;0.40;;;;;11.10;102004.00;;;;5094553;28;20190;-82
2021/11/22 02:11:18;;;;;;;2.08;0.38;;;;;11.10;102009.00;;;;5096985;28;21232;-82
2021/11/22 02:13:45;;;;;;;1.52;0.30;;;;;11.10;102013.00;;;;5093848;28;20191;-83
2021/11/22 02:16:13;;;;;;;3.65;0.47;;;;;11.10;102008.00;;;;5089795;28;20214;-82
2021/11/22 02:18:43;;;;;;;2.35;0.40;;;;;11.10;102010.00;;;;5103889;28;20225;-82
2021/11/22 02:21:11;;;;;;;0.22;0.10;;;;;11.10;102020.00;;;;5094812;28;20198;-82
2021/11/22 02:23:39;;;;;;;1.67;0.38;;;;;11.10;102014.00;;;;5103996;28;20194;-83
2021/11/22 02:26:06;;;;;;;0.28;0.20;;;;;11.00;102022.00;;;;5100100;28;20201;-83
2021/11/22 02:28:34;;;;;;;2.28;0.20;;;;;11.00;102020.00;;;;5105336;28;20221;-83
2021/11/22 02:31:02;;;;;;;0.95;0.40;;;;;11.00;102027.00;;;;5099500;28;20392;-82
2021/11/22 02:33:29;;;;;;;1.00;0.20;;;;;11.00;102035.00;;;;5091323;28;20205;-82
2021/11/22 02:35:59;;;;;;;0.52;0.30;;;;;11.00;102037.00;;;;5095158;28;20226;-83
2021/11/22 02:38:30;;;;;;;1.42;0.17;;;;;11.00;102035.00;;;;5095697;28;20190;-82
2021/11/22 02:40:58;;;;;;;0.85;0.20;;;;;11.00;102038.00;;;;5101833;28;20190;-82
2021/11/22 02:43:26;;;;;;;1.02;0.40;;;;;11.00;102045.00;;;;5089815;28;20202;-81
2021/11/22 02:45:54;;;;;;;1.38;0.45;;;;;11.00;102038.00;;;;5093772;28;20205;-82
2021/11/22 02:48:21;;;;;;;1.95;0.47;;;;;11.00;102041.00;;;;5096390;28;20687;-82
2021/11/22 02:50:49;;;;;;;1.92;0.50;;;;;10.90;102039.00;;;;5090792;28;21073;-82
2021/11/22 02:53:16;;;;;;;1.13;0.30;;;;;10.90;102047.00;;;;5090992;28;20190;-82
2021/11/22 02:55:46;;;;;;;1.15;0.30;;;;;10.90;102045.00;;;;5103641;28;20221;-83
2021/11/22 02:58:13;;;;;;;1.67;0.30;;;;;10.90;102052.00;;;;5087921;28;20198;-82
2021/11/22 03:00:41;;;;;;;1.33;0.30;;;;;10.90;102054.00;;;;5091327;28;20190;-81
2021/11/22 03:03:08;;;;;;;0.50;0.20;;;;;10.90;102057.00;;;;5090107;28;20202;-82
2021/11/22 03:05:36;;;;;;;0.80;0.40;;;;;10.90;102063.00;;;;5095167;28;20201;-82
2021/11/22 03:08:03;;;;;;;1.85;0.15;;;;;10.90;102059.00;;;;5096894;28;20193;-82
2021/11/22 03:10:30;;;;;;;0.73;0.13;;;;;10.90;102066.00;;;;5090689;28;20194;-83
2021/11/22 03:13:00;;;;;;;2.70;0.85;;;;;10.90;102073.00;;;;5105135;28;20201;-82
2021/11/22 03:15:29;;;;;;;0.90;0.43;;;;;10.90;102077.00;;;;5098661;28;20209;-82
2021/11/22 03:17:57;;;;;;;1.02;0.22;;;;;10.90;102070.00;;;;5095162;28;20205;-82
2021/11/22 03:20:24;;;;;;;1.35;0.32;;;;;10.90;102081.00;;;;5092933;28;20191;-82
2021/11/22 03:22:52;;;;;;;2.28;0.40;;;;;10.80;102078.00;;;;5088649;28;20202;-83
2021/11/22 03:25:20;;;;;;;1.50;0.32;;;;;10.80;102092.00;;;;5090684;28;20290;-82
2021/11/22 03:27:49;;;;;;;0.40;0.15;;;;;10.80;102091.00;;;;5088441;28;20221;-82
2021/11/22 03:30:19;;;;;;;2.67;0.30;;;;;10.80;102084.00;;;;5089121;28;20208;-82
2021/11/22 03:32:46;;;;;;;0.82;0.35;;;;;10.80;102099.00;;;;5093450;28;20194;-82
2021/11/22 03:35:14;;;;;;;2.15;0.50;;;;;10.80;102106.00;;;;5098879;28;20217;-82
2021/11/22 03:37:42;;;;;;;1.73;0.20;;;;;10.80;102101.00;;;;5098319;28;20194;-82
2021/11/22 03:40:12;;;;;;;0.90;0.30;;;;;10.80;102111.00;;;;5099717;28;20189;-82
2021/11/22 03:42:51;;;;;;;2.05;0.20;;;;;10.80;102111.00;;;;5107004;28;20206;-83
2021/11/22 03:45:20;;;;;;;1.95;0.40;;;;;10.80;102117.00;;;;5093994;28;20206;-82
2021/11/22 03:47:47;;;;;;;0.95;0.32;;;;;10.80;102116.00;;;;5108047;28;20197;-83
2021/11/22 03:50:15;;;;;;;1.73;0.38;;;;;10.80;102120.00;;;;5093507;28;20199;-83
2021/11/22 03:52:42;;;;;;;0.52;0.20;;;;;10.70;102122.00;;;;5099059;28;20198;-82
2021/11/22 03:55:10;;;;;;;2.55;0.50;;;;;10.80;102133.00;;;;5096810;28;20213;-82
2021/11/22 03:57:37;;;;;;;1.48;0.50;;;;;10.70;102122.00;;;;5105365;28;20198;-82
2021/11/22 04:00:05;;;;;;;1.05;0.30;;;;;10.70;102136.00;;;;5103194;28;20189;-82
2021/11/22 04:02:35;;;;;;;1.25;0.38;;;;;10.70;102138.00;;;;5097554;28;20213;-82
2021/11/22 04:05:03;;;;;;;2.15;0.30;;;;;10.70;102138.00;;;;5095469;28;20202;-82
2021/11/22 04:07:30;;;;;;;0.55;0.22;;;;;10.70;102135.00;;;;5096562;28;20206;-82
2021/11/22 04:09:57;;;;;;;0.88;0.70;;;;;10.70;102138.00;;;;5098520;28;20211;-82
2021/11/22 04:12:25;;;;;;;0.88;0.22;;;;;10.70;102138.00;;;;5094434;28;20701;-82
2021/11/22 04:14:53;;;;;;;1.25;0.32;;;;;10.70;102149.00;;;;5107945;28;20194;-83
2021/11/22 04:17:20;;;;;;;1.08;0.50;;;;;10.70;102152.00;;;;5098563;28;20220;-83
2021/11/22 04:19:49;;;;;;;1.88;0.50;;;;;10.60;102163.00;;;;5095485;28;20216;-82
2021/11/22 04:22:16;;;;;;;2.10;0.60;;;;;10.60;102159.00;;;;5105311;28;20190;-82
2021/11/22 04:24:44;;;;;;;0.55;0.28;;;;;10.60;102168.00;;;;5097620;28;20206;-82
2021/11/22 04:27:12;;;;;;;5.43;0.65;;;;;10.60;102179.00;;;;5098541;28;20229;-83
2021/11/22 04:29:40;;;;;;;1.20;0.32;;;;;10.60;102177.00;;;;5099241;28;20205;-81
2021/11/22 04:32:09;;;;;;;1.52;0.40;;;;;10.60;102175.00;;;;5103076;28;20186;-82
2021/11/22 04:34:38;;;;;;;1.33;0.45;;;;;10.60;102174.00;;;;5100462;28;20223;-82
2021/11/22 04:37:07;;;;;;;1.35;0.57;;;;;10.50;102177.00;;;;5098774;28;20301;-82
2021/11/22 04:39:36;;;;;;;1.88;0.50;;;;;10.50;102181.00;;;;5107013;28;20603;-82
2021/11/22 04:42:03;;;;;;;1.75;0.65;;;;;10.50;102191.00;;;;5099355;28;20194;-82
2021/11/22 04:44:31;;;;;;;1.52;0.40;;;;;10.50;102188.00;;;;5089734;28;20194;-83
2021/11/22 04:46:58;;;;;;;1.65;0.55;;;;;10.50;102199.00;;;;5097995;28;20693;-82
2021/11/22 04:49:25;;;;;;;2.33;0.63;;;;;10.50;102204.00;;;;5092947;28;20202;-82
2021/11/22 04:51:52;;;;;;;0.43;0.25;;;;;10.40;102207.00;;;;5090624;28;20222;-83
2021/11/22 04:54:21;;;;;;;0.77;0.40;;;;;10.40;102213.00;;;;5092760;28;20201;-83
2021/11/22 04:56:48;;;;;;;1.27;0.35;;;;;10.40;102213.00;;;;5090328;28;20225;-83
2021/11/22 04:59:16;;;;;;;2.42;0.60;;;;;10.40;102219.00;;;;5093945;28;20185;-83
2021/11/22 05:01:43;;;;;;;0.40;0.30;;;;;10.40;102217.00;;;;5098300;28;20204;-83
2021/11/22 05:04:10;;;;;;;2.03;0.40;;;;;10.30;102213.00;;;;5102391;28;20194;-82
2021/11/22 05:06:38;;;;;;;0.77;0.40;;;;;10.30;102221.00;;;;5090279;28;20214;-82
2021/11/22 05:09:05;;;;;;;1.00;0.40;;;;;10.30;102229.00;;;;5096579;28;20193;-82
2021/11/22 05:11:33;;;;;;;2.95;0.40;;;;;10.30;102232.00;;;;5096404;28;20204;-82
2021/11/22 05:14:01;;;;;;;1.52;0.43;;;;;10.30;102231.00;;;;5097802;28;20186;-82
2021/11/22 05:16:28;;;;;;;1.98;0.50;;;;;10.30;102247.00;;;;5099179;28;20281;-82
2021/11/22 05:18:56;;;;;;;1.65;0.93;;;;;10.20;102240.00;;;;5093345;28;20197;-82
2021/11/22 05:21:25;;;;;;;0.98;0.38;;;;;10.20;102255.00;;;;5100469;28;20630;-82
2021/11/22 05:23:54;;;;;;;0.95;0.50;;;;;10.20;102243.00;;;;5099258;28;20186;-82
2021/11/22 05:26:21;;;;;;;1.88;0.60;;;;;10.20;102248.00;;;;5096518;28;20660;-82
2021/11/22 05:28:50;;;;;;;0.95;0.30;;;;;10.20;102253.00;;;;5090962;28;20195;-82
2021/11/22 05:31:19;;;;;;;2.60;0.75;;;;;10.20;102255.00;;;;5095006;28;20201;-82
2021/11/22 05:33:46;;;;;;;1.95;0.30;;;;;10.20;102258.00;;;;5098812;28;20193;-82
2021/11/22 05:36:13;;;;;;;1.83;0.70;;;;;10.20;102269.00;;;;5092177;28;20223;-82
2021/11/22 05:38:41;;;;;;;1.48;0.30;;;;;10.20;102268.00;;;;5107171;28;20197;-82
2021/11/22 05:41:08;;;;;;;2.40;0.50;;;;;10.20;102261.00;;;;5098954;28;20193;-83
2021/11/22 05:43:36;;;;;;;1.15;0.47;;;;;10.10;102265.00;;;;5090201;28;20190;-84
2021/11/22 05:46:05;;;;;;;3.33;0.50;;;;;10.10;102272.00;;;;5089327;28;20191;-84
2021/11/22 05:48:33;;;;;;;1.35;0.65;;;;;10.10;102266.00;;;;5099596;28;20687;-84
2021/11/22 05:51:01;;;;;;;1.23;0.30;;;;;10.10;102274.00;;;;5095890;28;20680;-84
2021/11/22 05:53:33;;;;;;;1.17;0.35;;;;;10.10;102283.00;;;;5088040;28;20248;-84
2021/11/22 05:56:01;;;;;;;2.42;0.57;;;;;10.10;102285.00;;;;5094368;28;20217;-84
2021/11/22 05:58:30;;;;;;;1.05;0.40;;;;;10.10;102290.00;;;;5092988;28;20300;-82
2021/11/22 06:00:58;;;;;;;1.50;0.40;;;;;10.10;102295.00;;;;5092438;28;20234;-82
2021/11/22 06:03:28;;;;;;;0.60;0.40;;;;;10.00;102287.00;;;;5102122;28;20231;-82
2021/11/22 06:05:56;;;;;;;2.58;0.60;;;;;10.00;102291.00;;;;5094234;28;20206;-83
2021/11/22 06:08:25;;;;;;;3.13;0.63;;;;;10.00;102304.00;;;;5093169;28;20237;-84
2021/11/22 06:10:53;;;;;;;1.83;0.35;;;;;10.00;102304.00;;;;5094617;28;20204;-82
2021/11/22 06:13:26;;;;;;;1.70;0.60;;;;;9.90;102299.00;;;;5099794;28;20624;-82
2021/11/22 06:15:54;;;;;;;0.60;0.40;;;;;9.90;102300.00;;;;5088958;28;20572;-83
2021/11/22 06:18:21;;;;;;;2.03;0.60;;;;;9.90;102300.00;;;;5089325;28;20196;-84
2021/11/22 06:20:50;;;;;;;0.70;0.40;;;;;9.90;102307.00;;;;5098854;28;20194;-83
2021/11/22 06:23:18;;;;;;;1.80;0.50;;;;;9.90;102312.00;;;;5098364;28;20205;-82
2021/11/22 06:25:45;;;;;;;1.38;0.80;;;;;9.80;102316.00;;;;5096082;28;20194;-82
2021/11/22 06:28:12;;;;;;;1.35;0.77;;;;;9.80;102325.00;;;;5101045;28;20672;-81
2021/11/22 06:30:41;;;;;;;1.02;0.60;;;;;9.80;102320.00;;;;5090430;28;20209;-83
2021/11/22 06:33:08;;;;;;;2.00;0.40;;;;;9.80;102329.00;;;;5094086;28;20274;-83
2021/11/22 06:35:36;;;;;;;2.60;0.47;;;;;9.80;102332.00;;;;5091447;28;20190;-83
2021/11/22 06:38:05;;;;;;;2.38;0.93;;;;;9.70;102332.00;;;;5095012;28;20202;-84
2021/11/22 06:40:33;;;;;;;4.53;0.63;;;;;9.70;102340.00;;;;5099471;28;20193;-83
2021/11/22 06:43:00;;;;;;;1.50;0.65;;;;;9.70;102341.00;;;;5091966;28;20205;-82
2021/11/22 06:45:28;;;;;;;1.80;0.50;;;;;9.70;102343.00;;;;5094622;28;20205;-83
2021/11/22 06:47:55;;;;;;;1.60;0.70;;;;;9.70;102349.00;;;;5095355;28;20224;-83
2021/11/22 06:50:22;;;;;;;2.40;0.70;;;;;9.60;102355.00;;;;5089764;28;20198;-82
2021/11/22 06:52:50;;;;;;;0.80;0.60;;;;;9.60;102354.00;;;;5107229;28;20200;-83
2021/11/22 06:55:20;;;;;;;2.60;0.90;;;;;9.60;102369.00;;;;5100121;28;20192;-84
2021/11/22 06:57:47;;;;;;;1.13;0.65;;;;;9.60;102371.00;;;;5089095;28;20213;-81
2021/11/22 07:00:16;;;;;;;1.38;0.68;;;;;9.60;102383.00;;;;5100990;28;20198;-81
2021/11/22 07:02:43;;;;;;;2.72;1.30;;;;;9.60;102383.00;;;;5103214;28;20193;-81
2021/11/22 07:05:11;;;;;;;2.00;1.10;;;;;9.60;102392.00;;;;5096963;28;20827;-81
2021/11/22 07:07:39;;;;;;;2.88;0.80;;;;;9.60;102395.00;;;;5091967;28;20205;-80
2021/11/22 07:10:07;;;;;;;2.60;0.75;;;;;9.60;102403.00;;;;5099906;28;20186;-80
2021/11/22 07:12:37;;;;;;;1.55;0.82;;;;;9.50;102414.00;;;;5107491;28;20194;-80
2021/11/22 07:15:05;;;;;;;2.15;0.82;;;;;9.50;102420.00;;;;5099064;28;20202;-80
2021/11/22 07:17:33;;;;;;;2.10;1.33;;;;;9.50;102413.00;;;;5109109;28;20213;-80
2021/11/22 07:20:00;;;;;;;2.17;0.65;;;;;9.50;102415.00;;;;5095846;28;20198;-80
2021/11/22 07:22:28;;;;;;;2.25;0.50;;;;;9.50;102421.00;;;;5094400;28;20194;-80
2021/11/22 07:24:55;;;;;;;2.08;0.75;;;;;9.50;102418.00;;;;5107008;28;20202;-80
2021/11/22 07:27:25;;;;;;;3.25;0.57;;;;;9.50;102424.00;;;;5106612;28;20205;-81
2021/11/22 07:29:56;;;;;;;1.17;0.63;;;;;9.50;102427.00;;;;5091965;28;20198;-80
2021/11/22 07:32:27;;;;;;;2.83;0.88;;;;;9.50;102429.00;;;;5091957;28;20598;-80
2021/11/22 07:34:55;;;;;;;1.48;0.60;;;;;9.50;102436.00;;;;5099612;28;20225;-80
2021/11/22 07:37:23;;;;;;;1.63;0.80;;;;;9.50;102435.00;;;;5091874;28;20737;-80
2021/11/22 07:39:50;;;;;;;0.80;0.45;;;;;9.50;102447.00;;;;5093281;28;20224;-80
2021/11/22 07:42:17;;;;;;;4.18;0.52;;;;;9.50;102455.00;;;;5096428;28;20198;-80
2021/11/22 07:44:45;;;;;;;1.83;0.57;;;;;9.50;102468.00;;;;5095163;28;20209;-80
2021/11/22 07:47:14;;;;;;;1.65;1.05;;;;;9.50;102461.00;;;;5093174;28;20198;-79
2021/11/22 07:49:42;;;;;;;2.42;0.60;;;;;9.50;102471.00;;;;5093601;28;20531;-79
2021/11/22 07:52:09;;;;;;;1.25;0.45;;;;;9.60;102470.00;;;;5099677;28;20636;-80
2021/11/22 07:54:37;;;;;;;5.97;1.02;;;;;9.60;102467.00;;;;5103280;28;20567;-80
2021/11/22 07:57:05;;;;;;;1.05;0.70;;;;;9.60;102472.00;;;;5099170;28;20214;-80
2021/11/22 07:59:33;;;;;;;1.65;0.63;;;;;9.60;102478.00;;;;5092861;28;20201;-82
2021/11/22 08:02:01;;;;;;;2.08;0.82;;;;;9.60;102477.00;;;;5106501;28;20200;-81
2021/11/22 08:04:30;;;;;;;1.42;0.63;;;;;9.60;102488.00;;;;5092503;28;20198;-81
2021/11/22 08:07:00;;;;;;;1.67;0.63;;;;;9.70;102493.00;;;;5099596;28;20209;-81
2021/11/22 08:09:30;;;;;;;2.08;0.50;;;;;9.70;102490.00;;;;5101015;28;20235;-81
2021/11/22 08:12:22;;;;;;;1.25;0.43;;;;;9.70;102496.00;;;;5102922;28;20570;-81
2021/11/22 08:14:50;;;;;;;1.23;0.43;;;;;9.80;102494.00;;;;5100891;28;20721;-79
2021/11/22 08:17:17;;;;;;;6.25;0.73;;;;;9.80;102496.00;;;;5090986;28;20222;-80
2021/11/22 08:19:46;;;;;;;1.80;0.82;;;;;9.80;102504.00;;;;5093384;28;20206;-80
2021/11/22 08:22:13;;;;;;;1.65;0.50;;;;;9.90;102506.00;;;;5098611;28;20187;-80
2021/11/22 08:24:41;;;;;;;0.60;0.35;;;;;9.90;102510.00;;;;5098677;28;20206;-80
2021/11/22 08:27:08;;;;;;;1.80;0.60;;;;;9.90;102520.00;;;;5098493;28;20217;-80
2021/11/22 08:29:35;;;;;;;3.08;0.60;;;;;10.00;102518.00;;;;5092040;28;20198;-78
2021/11/22 08:32:03;;;;;;;0.68;0.40;;;;;10.00;102507.00;;;;5101445;28;20191;-78
2021/11/22 08:34:30;;;;;;;1.25;0.47;;;;;10.00;102520.00;;;;5096670;28;20217;-78
2021/11/22 08:36:59;;;;;;;2.20;0.95;;;;;10.10;102520.00;;;;5102664;28;20228;-78
2021/11/22 08:39:27;;;;;;;1.05;0.52;;;;;10.10;102523.00;;;;5099490;28;20200;-78
2021/11/22 08:41:54;;;;;;;1.83;0.73;;;;;10.10;102522.00;;;;5093550;28;20206;-78
2021/11/22 08:44:22;;;;;;;3.45;0.73;;;;;10.20;102530.00;;;;5106781;28;20193;-78
2021/11/22 08:46:49;;;;;;;1.42;0.60;;;;;10.20;102539.00;;;;5093413;28;20198;-79
2021/11/22 08:49:17;;;;;;;3.85;0.98;;;;;10.30;102540.00;;;;5101419;28;20198;-79
2021/11/22 08:51:45;;;;;;;1.80;0.38;;;;;10.30;102538.00;;;;5099270;28;20233;-78
2021/11/22 08:54:14;;;;;;;1.50;0.68;;;;;10.40;102547.00;;;;5100539;28;20189;-78
2021/11/22 08:56:42;;;;;;;1.50;0.57;;;;;10.40;102552.00;;;;5094734;28;20209;-78
2021/11/22 08:59:09;;;;;;;1.23;0.60;;;;;10.50;102550.00;;;;5100508;28;20190;-78
2021/11/22 09:01:38;;;;;;;1.55;0.60;;;;;10.50;102551.00;;;;5100286;28;20197;-78
2021/11/22 09:04:06;;;;;;;2.35;0.35;;;;;10.50;102553.00;;;;5096468;28;20194;-78
2021/11/22 09:06:34;;;;;;;0.88;0.50;;;;;10.60;102558.00;;;;5094501;28;20202;-78
2021/11/22 09:09:03;;;;;;;2.42;0.50;;;;;10.60;102556.00;;;;5102219;28;20192;-78
2021/11/22 09:11:32;;;;;;;2.40;0.57;;;;;10.70;102568.00;;;;5096739;28;20193;-78
2021/11/22 09:14:00;;;;;;;1.65;0.52;;;;;10.70;102575.00;;;;5092342;28;20202;-78
2021/11/22 09:16:30;;;;;;;3.75;1.00;;;;;10.80;102578.00;;;;5105208;28;20201;-78
2021/11/22 09:18:59;;;;;;;0.80;0.40;;;;;10.80;102580.00;;;;5094422;28;20210;-79
2021/11/22 09:21:27;;;;;;;2.75;0.68;;;;;10.90;102579.00;;;;5100220;28;20193;-81
2021/11/22 09:23:56;;;;;;;1.50;0.80;;;;;10.90;102583.00;;;;5101467;28;20205;-81
2021/11/22 09:26:24;;;;;;;1.98;1.15;;;;;10.90;102583.00;;;;5095709;28;20202;-81
2021/11/22 09:28:53;;;;;;;1.95;1.02;;;;;11.00;102590.00;;;;5092295;28;20322;-82
2021/11/22 09:31:20;;;;;;;2.67;1.10;;;;;11.00;102587.00;;;;5089424;28;20540;-81
2021/11/22 09:33:50;;;;;;;0.93;0.47;;;;;11.10;102594.00;;;;5098577;28;20199;-82
2021/11/22 09:36:18;;;;;;;1.00;0.55;;;;;11.20;102597.00;;;;5091301;28;20729;-81
2021/11/22 09:38:45;;;;;;;1.58;0.63;;;;;11.20;102598.00;;;;5104180;28;20226;-82
2021/11/22 09:41:14;;;;;;;2.03;1.08;;;;;11.30;102604.00;;;;5097377;28;20205;-81
2021/11/22 09:43:44;;;;;;;1.13;0.40;;;;;11.30;102598.00;;;;5094537;28;20198;-80
2021/11/22 09:46:13;;;;;;;2.75;0.75;;;;;11.40;102603.00;;;;5099536;28;20205;-78
2021/11/22 09:48:41;;;;;;;0.90;0.55;;;;;11.40;102605.00;;;;5094985;27;20213;-78
2021/11/22 09:51:10;;;;;;;0.98;0.55;;;;;11.50;102604.00;;;;5098568;28;20229;-78
2021/11/22 09:53:38;;;;;;;2.08;0.35;;;;;11.60;102607.00;;;;5103370;28;20212;-79
2021/11/22 09:56:05;;;;;;;2.75;0.50;;;;;11.60;102614.00;;;;5093907;28;20209;-79
2021/11/22 09:58:33;;;;;;;2.60;0.73;;;;;11.70;102607.00;;;;5104077;28;20233;-78
2021/11/22 10:01:05;;;;;;;1.52;0.38;;;;;11.70;102617.00;;;;5096310;28;20194;-78
2021/11/22 10:03:34;;;;;;;0.85;0.40;;;;;11.80;102618.00;;;;5087782;28;20194;-78
2021/11/22 10:06:03;;;;;;;2.72;0.60;;;;;11.90;102625.00;;;;5103419;28;20204;-77
2021/11/22 10:08:39;;;;;;;1.13;0.52;;;;;11.90;102623.00;;;;5098246;28;20186;-78
2021/11/22 10:11:09;;;;;;;4.53;0.70;;;;;12.00;102617.00;;;;5092486;28;20191;-78
2021/11/22 10:13:38;;;;;;;0.80;0.40;;;;;12.10;102626.00;;;;5092868;28;20201;-79
2021/11/22 10:16:24;;;;;;;2.72;0.20;;;;;12.00;102619.00;;;;5097385;28;20190;-78
2021/11/22 10:18:55;;;;;;;0.30;0.22;;;;;12.20;102618.00;;;;5089378;28;20688;-79
2021/11/22 10:21:25;;;;;;;1.02;0.40;;;;;12.30;102627.00;;;;5088386;28;20679;-78
2021/11/22 10:23:58;;;;;;;2.92;0.60;;;;;12.40;102627.00;;;;5101197;28;20543;-78
2021/11/22 10:26:26;;;;;;;2.13;0.43;;;;;12.50;102629.00;;;;5093561;28;20694;-78
2021/11/22 10:28:55;;;;;;;1.30;0.28;;;;;12.50;102633.00;;;;5097990;28;20197;-78
2021/11/22 10:31:25;;;;;;;0.68;0.32;;;;;12.60;102627.00;;;;5096557;28;20185;-78
2021/11/22 10:33:55;;;;;;;1.45;0.30;;;;;12.60;102627.00;;;;5098704;28;20199;-78
2021/11/22 10:36:24;;;;;;;0.52;0.30;;;;;12.70;102627.00;;;;5092740;28;20658;-79
2021/11/22 10:38:53;;;;;;;1.17;0.50;;;;;12.80;102625.00;;;;5106081;28;20229;-79
2021/11/22 10:41:22;;;;;;;1.75;0.40;;;;;12.80;102626.00;;;;5094506;28;20664;-79
2021/11/22 10:43:52;;;;;;;1.08;0.30;;;;;12.90;102628.00;;;;5095699;28;20190;-82
2021/11/22 10:46:25;;;;;;;0.80;0.40;;;;;12.90;102622.00;;;;5097211;28;20286;-80
2021/11/22 10:48:54;;;;;;;0.85;0.40;;;;;13.10;102624.00;;;;5096755;28;20189;-80
2021/11/22 10:51:23;;;;;;;0.70;0.40;;;;;13.10;102627.00;;;;5093651;28;20218;-81
2021/11/22 10:53:55;;;;;;;1.13;0.40;;;;;13.20;102624.00;;;;5099774;28;20669;-81
2021/11/22 10:56:25;;;;;;;2.20;0.40;;;;;13.20;102634.00;;;;5098569;28;20273;-81
2021/11/22 10:58:56;;;;;;;0.50;0.38;;;;;13.30;102638.00;;;;5099630;28;20319;-80
2021/11/22 11:01:35;;;;;;;1.73;0.45;;;;;13.40;102641.00;;;;5095519;28;20661;-81
2021/11/22 11:04:23;;;;;;;1.30;0.35;;;;;13.50;102635.00;;;;5106860;28;20193;-80
2021/11/22 11:06:56;;;;;;;1.23;0.40;;;;;13.50;102627.00;;;;5073530;28;20210;-80
2021/11/22 11:09:26;;;;;;;3.20;0.40;;;;;13.60;102634.00;;;;5091153;28;20198;-79
2021/11/22 11:12:03;;;;;;;0.75;0.30;;;;;13.70;102639.00;;;;5098655;28;20250;-79
2021/11/22 11:14:31;;;;;;;1.88;0.73;;;;;13.70;102643.00;;;;5097507;28;20209;-79
2021/11/22 11:17:15;;;;;;;0.65;0.38;;;;;13.70;102643.00;;;;5102663;28;20190;-77
2021/11/22 11:19:45;;;;;;;2.42;0.30;;;;;13.80;102646.00;;;;5088366;28;20280;-78
2021/11/22 11:22:13;;;;;;;0.90;0.40;;;;;13.80;102646.00;;;;5100363;28;20510;-77
2021/11/22 11:24:41;;;;;;;3.20;0.55;;;;;13.80;102643.00;;;;5093702;28;21360;-78
2021/11/22 11:27:08;;;;;;;2.45;0.32;;;;;13.90;102648.00;;;;5100939;28;20217;-79
2021/11/22 11:29:37;;;;;;;0.82;0.10;;;;;13.90;102645.00;;;;5096782;28;20578;-79
2021/11/22 11:32:05;;;;;;;0.28;0.17;;;;;13.90;102643.00;;;;5100438;28;20191;-79
2021/11/22 11:34:34;;;;;;;1.08;0.55;;;;;14.00;102649.00;;;;5089007;28;20190;-78
2021/11/22 11:37:31;;;;;;;0.63;0.38;;;;;14.00;102647.00;;;;5094824;28;20540;-78
2021/11/22 11:40:25;;;;;;;1.35;0.30;;;;;14.00;102650.00;;;;5090249;28;20714;-79
2021/11/22 11:43:29;;;;;;;1.10;0.13;;;;;14.10;102647.00;;;;5082335;28;20193;-80
2021/11/22 11:46:03;;;;;;;1.00;0.30;;;;;14.20;102647.00;;;;5096524;28;20693;-78
2021/11/22 11:48:59;;;;;;;0.38;0.20;;;;;14.20;102651.00;;;;5101405;28;20193;-79
2021/11/22 11:51:37;;;;;;;0.85;0.35;;;;;14.40;102649.00;;;;5094810;28;20319;-79
2021/11/22 11:54:11;;;;;;;1.17;0.20;;;;;14.40;102649.00;;;;5100903;28;20655;-78
2021/11/22 11:56:50;;;;;;;1.52;0.45;;;;;14.50;102650.00;;;;5105049;28;20193;-79
2021/11/22 11:59:22;;;;;;;0.88;0.38;;;;;14.60;102643.00;;;;5099704;28;20589;-79
2021/11/22 12:01:59;;;;;;;1.50;0.25;;;;;14.70;102649.00;;;;5098140;28;20194;-79
2021/11/22 12:04:27;;;;;;;0.98;0.30;;;;;14.80;102653.00;;;;5098686;28;20194;-80
2021/11/22 12:06:56;;;;;;;2.15;0.30;;;;;14.80;102652.00;;;;5105429;28;20224;-81
2021/11/22 12:09:34;;;;;;;0.73;0.20;;;;;14.80;102651.00;;;;5101734;28;20209;-80
2021/11/22 12:12:19;;;;;;;0.35;0.15;;;;;14.90;102656.00;;;;5107116;28;20220;-80
2021/11/22 12:14:52;;;;;;;0.40;0.28;;;;;14.90;102660.00;;;;5093800;28;20676;-80
2021/11/22 12:17:54;;;;;;;0.77;0.20;;;;;14.90;102656.00;;;;5096915;28;20197;-80
2021/11/22 12:20:41;;;;;;;0.40;0.10;;;;;14.90;102656.00;;;;5095455;28;20186;-81